sensor_id;sensor_type;location;lat;lon;timestamp;temperature;humidity
28548;DHT22;68292;49.600;8.746;2024-03-25T00:00:12;16.10;48.60
28548;DHT22;68292;49.600;8.746;2024-03-25T00:02:41;16.10;48.60
28548;DHT22;68292;49.600;8.746;2024-03-25T00:05:09;16.00;48.60
28548;DHT22;68292;49.600;8.746;2024-03-25T00:07:37;16.00;48.60
28548;DHT22;68292;49.600;8.746;2024-03-25T00:10:06;16.00;48.60
28548;DHT22;68292;49.600;8.746;2024-03-25T00:12:34;16.00;48.70
28548;DHT22;68292;49.600;8.746;2024-03-25T00:15:02;16.00;48.90
28548;DHT22;68292;49.600;8.746;2024-03-25T00:17:30;16.00;48.70
28548;DHT22;68292;49.600;8.746;2024-03-25T00:19:58;16.00;48.80
28548;DHT22;68292;49.600;8.746;2024-03-25T00:22:25;16.00;48.80
28548;DHT22;68292;49.600;8.746;2024-03-25T00:24:53;15.90;48.70
28548;DHT22;68292;49.600;8.746;2024-03-25T00:27:19;15.90;48.70
28548;DHT22;68292;49.600;8.746;2024-03-25T00:29:47;15.90;48.80
28548;DHT22;68292;49.600;8.746;2024-03-25T00:32:14;15.90;49.40
28548;DHT22;68292;49.600;8.746;2024-03-25T00:34:43;15.90;48.80
28548;DHT22;68292;49.600;8.746;2024-03-25T00:37:10;15.90;48.90
28548;DHT22;68292;49.600;8.746;2024-03-25T00:39:38;15.90;48.90
28548;DHT22;68292;49.600;8.746;2024-03-25T00:42:05;15.90;48.80
28548;DHT22;68292;49.600;8.746;2024-03-25T00:44:33;15.90;48.90
28548;DHT22;68292;49.600;8.746;2024-03-25T00:46:59;15.90;48.90
28548;DHT22;68292;49.600;8.746;2024-03-25T00:49:27;15.90;48.90
28548;DHT22;68292;49.600;8.746;2024-03-25T00:51:55;15.90;48.90
28548;DHT22;68292;49.600;8.746;2024-03-25T00:54:23;16.00;49.00
28548;DHT22;68292;49.600;8.746;2024-03-25T00:56:50;15.90;48.90
28548;DHT22;68292;49.600;8.746;2024-03-25T00:59:19;15.90;48.90
28548;DHT22;68292;49.600;8.746;2024-03-25T01:01:46;15.90;48.90
28548;DHT22;68292;49.600;8.746;2024-03-25T01:04:13;16.00;48.90
28548;DHT22;68292;49.600;8.746;2024-03-25T01:06:40;15.90;48.90
28548;DHT22;68292;49.600;8.746;2024-03-25T01:09:09;16.00;48.80
28548;DHT22;68292;49.600;8.746;2024-03-25T01:11:36;15.90;48.80
28548;DHT22;68292;49.600;8.746;2024-03-25T01:14:04;16.00;48.80
28548;DHT22;68292;49.600;8.746;2024-03-25T01:16:30;15.90;48.80
28548;DHT22;68292;49.600;8.746;2024-03-25T01:18:58;16.00;48.90
28548;DHT22;68292;49.600;8.746;2024-03-25T01:21:25;15.90;48.80
28548;DHT22;68292;49.600;8.746;2024-03-25T01:23:52;16.00;49.00
28548;DHT22;68292;49.600;8.746;2024-03-25T01:26:20;16.00;49.00
28548;DHT22;68292;49.600;8.746;2024-03-25T01:28:48;15.90;49.00
28548;DHT22;68292;49.600;8.746;2024-03-25T01:31:15;16.00;49.00
28548;DHT22;68292;49.600;8.746;2024-03-25T01:33:43;16.00;48.90
28548;DHT22;68292;49.600;8.746;2024-03-25T01:36:09;16.00;48.90
28548;DHT22;68292;49.600;8.746;2024-03-25T01:38:42;16.00;48.90
28548;DHT22;68292;49.600;8.746;2024-03-25T01:41:09;16.00;48.90
28548;DHT22;68292;49.600;8.746;2024-03-25T01:43:38;16.00;48.80
28548;DHT22;68292;49.600;8.746;2024-03-25T01:46:06;16.00;48.80
28548;DHT22;68292;49.600;8.746;2024-03-25T01:48:34;16.00;48.80
28548;DHT22;68292;49.600;8.746;2024-03-25T01:51:01;16.00;48.70
28548;DHT22;68292;49.600;8.746;2024-03-25T01:53:30;16.00;48.70
28548;DHT22;68292;49.600;8.746;2024-03-25T01:55:58;16.00;48.70
28548;DHT22;68292;49.600;8.746;2024-03-25T01:58:26;15.90;48.60
28548;DHT22;68292;49.600;8.746;2024-03-25T02:00:55;15.90;48.60
28548;DHT22;68292;49.600;8.746;2024-03-25T02:03:23;15.90;48.60
28548;DHT22;68292;49.600;8.746;2024-03-25T02:05:51;15.90;48.60
28548;DHT22;68292;49.600;8.746;2024-03-25T02:08:21;15.90;48.60
28548;DHT22;68292;49.600;8.746;2024-03-25T02:10:48;15.90;48.60
28548;DHT22;68292;49.600;8.746;2024-03-25T02:13:16;15.80;48.60
28548;DHT22;68292;49.600;8.746;2024-03-25T02:15:43;15.80;49.30
28548;DHT22;68292;49.600;8.746;2024-03-25T02:18:12;15.80;48.70
28548;DHT22;68292;49.600;8.746;2024-03-25T02:20:39;15.80;48.60
28548;DHT22;68292;49.600;8.746;2024-03-25T02:23:07;15.90;48.70
28548;DHT22;68292;49.600;8.746;2024-03-25T02:25:38;15.80;48.70
28548;DHT22;68292;49.600;8.746;2024-03-25T02:28:09;15.80;48.80
28548;DHT22;68292;49.600;8.746;2024-03-25T02:30:36;15.80;48.60
28548;DHT22;68292;49.600;8.746;2024-03-25T02:33:04;15.80;48.70
28548;DHT22;68292;49.600;8.746;2024-03-25T02:35:31;15.80;48.70
28548;DHT22;68292;49.600;8.746;2024-03-25T02:37:59;15.80;48.70
28548;DHT22;68292;49.600;8.746;2024-03-25T02:40:26;15.80;48.60
28548;DHT22;68292;49.600;8.746;2024-03-25T02:42:53;15.80;48.60
28548;DHT22;68292;49.600;8.746;2024-03-25T02:45:22;15.80;48.50
28548;DHT22;68292;49.600;8.746;2024-03-25T02:47:50;15.80;48.50
28548;DHT22;68292;49.600;8.746;2024-03-25T02:50:17;15.80;48.60
28548;DHT22;68292;49.600;8.746;2024-03-25T02:52:45;15.80;48.50
28548;DHT22;68292;49.600;8.746;2024-03-25T02:55:12;15.80;48.50
28548;DHT22;68292;49.600;8.746;2024-03-25T02:57:39;15.80;48.50
28548;DHT22;68292;49.600;8.746;2024-03-25T03:00:07;15.80;48.50
28548;DHT22;68292;49.600;8.746;2024-03-25T03:02:37;15.70;48.50
28548;DHT22;68292;49.600;8.746;2024-03-25T03:05:04;15.80;48.40
28548;DHT22;68292;49.600;8.746;2024-03-25T03:07:32;15.70;48.40
28548;DHT22;68292;49.600;8.746;2024-03-25T03:09:58;15.80;48.40
28548;DHT22;68292;49.600;8.746;2024-03-25T03:12:26;15.70;48.30
28548;DHT22;68292;49.600;8.746;2024-03-25T03:14:53;15.70;48.30
28548;DHT22;68292;49.600;8.746;2024-03-25T03:17:20;15.70;48.40
28548;DHT22;68292;49.600;8.746;2024-03-25T03:19:48;15.70;48.40
28548;DHT22;68292;49.600;8.746;2024-03-25T03:22:16;15.70;48.40
28548;DHT22;68292;49.600;8.746;2024-03-25T03:24:44;15.70;48.40
28548;DHT22;68292;49.600;8.746;2024-03-25T03:27:10;15.60;48.30
28548;DHT22;68292;49.600;8.746;2024-03-25T03:29:38;15.60;48.30
28548;DHT22;68292;49.600;8.746;2024-03-25T03:32:05;15.70;48.40
28548;DHT22;68292;49.600;8.746;2024-03-25T03:34:34;15.60;48.30
28548;DHT22;68292;49.600;8.746;2024-03-25T03:37:02;15.60;48.30
28548;DHT22;68292;49.600;8.746;2024-03-25T03:39:30;15.60;48.30
28548;DHT22;68292;49.600;8.746;2024-03-25T03:41:56;15.60;48.30
28548;DHT22;68292;49.600;8.746;2024-03-25T03:44:24;15.60;48.30
28548;DHT22;68292;49.600;8.746;2024-03-25T03:46:51;15.60;48.30
28548;DHT22;68292;49.600;8.746;2024-03-25T03:49:18;15.60;48.30
28548;DHT22;68292;49.600;8.746;2024-03-25T03:51:45;15.50;48.20
28548;DHT22;68292;49.600;8.746;2024-03-25T03:54:14;15.50;48.20
28548;DHT22;68292;49.600;8.746;2024-03-25T03:56:40;15.50;48.10
28548;DHT22;68292;49.600;8.746;2024-03-25T03:59:08;15.50;48.10
28548;DHT22;68292;49.600;8.746;2024-03-25T04:01:35;15.50;48.10
28548;DHT22;68292;49.600;8.746;2024-03-25T04:04:02;15.50;48.10
28548;DHT22;68292;49.600;8.746;2024-03-25T04:06:31;15.50;48.00
28548;DHT22;68292;49.600;8.746;2024-03-25T04:08:58;15.50;47.90
28548;DHT22;68292;49.600;8.746;2024-03-25T04:11:26;15.40;47.90
28548;DHT22;68292;49.600;8.746;2024-03-25T04:13:54;15.40;47.90
28548;DHT22;68292;49.600;8.746;2024-03-25T04:16:21;15.40;47.90
28548;DHT22;68292;49.600;8.746;2024-03-25T04:18:49;15.40;48.00
28548;DHT22;68292;49.600;8.746;2024-03-25T04:21:15;15.40;48.00
28548;DHT22;68292;49.600;8.746;2024-03-25T04:23:43;15.30;47.90
28548;DHT22;68292;49.600;8.746;2024-03-25T04:26:10;15.30;47.90
28548;DHT22;68292;49.600;8.746;2024-03-25T04:28:40;15.30;47.90
28548;DHT22;68292;49.600;8.746;2024-03-25T04:31:07;15.30;48.00
28548;DHT22;68292;49.600;8.746;2024-03-25T04:33:36;15.30;48.00
28548;DHT22;68292;49.600;8.746;2024-03-25T04:36:03;15.30;48.00
28548;DHT22;68292;49.600;8.746;2024-03-25T04:38:31;15.20;48.00
28548;DHT22;68292;49.600;8.746;2024-03-25T04:40:57;15.20;47.90
28548;DHT22;68292;49.600;8.746;2024-03-25T04:43:24;15.30;47.90
28548;DHT22;68292;49.600;8.746;2024-03-25T04:45:52;15.20;47.90
28548;DHT22;68292;49.600;8.746;2024-03-25T04:48:19;15.20;47.80
28548;DHT22;68292;49.600;8.746;2024-03-25T04:50:46;15.20;47.90
28548;DHT22;68292;49.600;8.746;2024-03-25T04:53:13;15.20;47.90
28548;DHT22;68292;49.600;8.746;2024-03-25T04:55:40;15.20;47.90
28548;DHT22;68292;49.600;8.746;2024-03-25T04:58:06;15.20;47.90
28548;DHT22;68292;49.600;8.746;2024-03-25T05:00:33;15.10;47.80
28548;DHT22;68292;49.600;8.746;2024-03-25T05:03:01;15.10;47.80
28548;DHT22;68292;49.600;8.746;2024-03-25T05:05:28;15.10;47.70
28548;DHT22;68292;49.600;8.746;2024-03-25T05:07:54;15.10;47.80
28548;DHT22;68292;49.600;8.746;2024-03-25T05:10:21;15.10;47.80
28548;DHT22;68292;49.600;8.746;2024-03-25T05:12:48;15.10;47.90
28548;DHT22;68292;49.600;8.746;2024-03-25T05:15:15;15.10;48.00
28548;DHT22;68292;49.600;8.746;2024-03-25T05:17:42;15.00;48.00
28548;DHT22;68292;49.600;8.746;2024-03-25T05:20:11;15.00;48.00
28548;DHT22;68292;49.600;8.746;2024-03-25T05:22:38;15.10;47.90
28548;DHT22;68292;49.600;8.746;2024-03-25T05:25:05;15.00;47.70
28548;DHT22;68292;49.600;8.746;2024-03-25T05:27:32;15.00;47.70
28548;DHT22;68292;49.600;8.746;2024-03-25T05:29:58;15.00;47.50
28548;DHT22;68292;49.600;8.746;2024-03-25T05:32:25;15.00;47.60
28548;DHT22;68292;49.600;8.746;2024-03-25T05:34:52;15.00;47.60
28548;DHT22;68292;49.600;8.746;2024-03-25T05:37:20;15.00;47.70
28548;DHT22;68292;49.600;8.746;2024-03-25T05:39:47;15.00;47.70
28548;DHT22;68292;49.600;8.746;2024-03-25T05:42:13;15.00;47.80
28548;DHT22;68292;49.600;8.746;2024-03-25T05:44:40;15.00;47.90
28548;DHT22;68292;49.600;8.746;2024-03-25T05:47:07;15.00;47.70
28548;DHT22;68292;49.600;8.746;2024-03-25T05:49:33;15.00;47.80
28548;DHT22;68292;49.600;8.746;2024-03-25T05:52:00;15.00;47.70
28548;DHT22;68292;49.600;8.746;2024-03-25T05:54:28;14.90;47.60
28548;DHT22;68292;49.600;8.746;2024-03-25T05:56:55;14.90;47.50
28548;DHT22;68292;49.600;8.746;2024-03-25T05:59:21;14.90;47.50
28548;DHT22;68292;49.600;8.746;2024-03-25T06:01:48;14.90;47.60
28548;DHT22;68292;49.600;8.746;2024-03-25T06:04:15;14.80;47.60
28548;DHT22;68292;49.600;8.746;2024-03-25T06:06:41;14.80;47.70
28548;DHT22;68292;49.600;8.746;2024-03-25T06:09:08;14.80;47.80
28548;DHT22;68292;49.600;8.746;2024-03-25T06:11:36;14.80;47.80
28548;DHT22;68292;49.600;8.746;2024-03-25T06:14:03;14.80;47.90
28548;DHT22;68292;49.600;8.746;2024-03-25T06:16:30;14.80;47.90
28548;DHT22;68292;49.600;8.746;2024-03-25T06:18:56;14.80;48.00
28548;DHT22;68292;49.600;8.746;2024-03-25T06:21:23;14.80;48.00
28548;DHT22;68292;49.600;8.746;2024-03-25T06:23:50;14.80;48.10
28548;DHT22;68292;49.600;8.746;2024-03-25T06:26:16;14.80;48.10
28548;DHT22;68292;49.600;8.746;2024-03-25T06:28:45;14.80;48.10
28548;DHT22;68292;49.600;8.746;2024-03-25T06:31:11;14.80;48.20
28548;DHT22;68292;49.600;8.746;2024-03-25T06:34:02;14.80;48.30
28548;DHT22;68292;49.600;8.746;2024-03-25T06:36:43;14.90;48.30
28548;DHT22;68292;49.600;8.746;2024-03-25T06:39:10;14.90;48.40
28548;DHT22;68292;49.600;8.746;2024-03-25T06:41:37;14.90;48.40
28548;DHT22;68292;49.600;8.746;2024-03-25T06:44:05;14.90;48.40
28548;DHT22;68292;49.600;8.746;2024-03-25T06:46:32;15.00;48.50
28548;DHT22;68292;49.600;8.746;2024-03-25T06:48:59;15.00;48.50
28548;DHT22;68292;49.600;8.746;2024-03-25T06:51:26;15.00;48.50
28548;DHT22;68292;49.600;8.746;2024-03-25T06:53:53;15.00;48.50
28548;DHT22;68292;49.600;8.746;2024-03-25T06:56:19;15.00;48.60
28548;DHT22;68292;49.600;8.746;2024-03-25T06:58:46;15.00;48.60
28548;DHT22;68292;49.600;8.746;2024-03-25T07:01:14;15.00;48.70
28548;DHT22;68292;49.600;8.746;2024-03-25T07:03:41;15.00;48.80
28548;DHT22;68292;49.600;8.746;2024-03-25T07:06:08;15.10;48.80
28548;DHT22;68292;49.600;8.746;2024-03-25T07:08:34;15.10;48.90
28548;DHT22;68292;49.600;8.746;2024-03-25T07:11:01;15.10;49.00
28548;DHT22;68292;49.600;8.746;2024-03-25T07:13:30;15.10;49.00
28548;DHT22;68292;49.600;8.746;2024-03-25T07:15:58;15.20;49.20
28548;DHT22;68292;49.600;8.746;2024-03-25T07:18:26;15.20;49.30
28548;DHT22;68292;49.600;8.746;2024-03-25T07:20:52;15.20;49.40
28548;DHT22;68292;49.600;8.746;2024-03-25T07:23:19;15.20;49.40
28548;DHT22;68292;49.600;8.746;2024-03-25T07:25:46;15.30;49.50
28548;DHT22;68292;49.600;8.746;2024-03-25T07:28:12;15.30;49.60
28548;DHT22;68292;49.600;8.746;2024-03-25T07:30:39;15.40;49.60
28548;DHT22;68292;49.600;8.746;2024-03-25T07:33:06;15.40;49.70
28548;DHT22;68292;49.600;8.746;2024-03-25T07:35:35;15.40;49.70
28548;DHT22;68292;49.600;8.746;2024-03-25T07:38:02;15.50;49.70
28548;DHT22;68292;49.600;8.746;2024-03-25T07:40:29;15.50;49.70
28548;DHT22;68292;49.600;8.746;2024-03-25T07:42:56;15.60;49.80
28548;DHT22;68292;49.600;8.746;2024-03-25T07:45:23;15.60;49.80
28548;DHT22;68292;49.600;8.746;2024-03-25T07:47:49;15.70;49.80
28548;DHT22;68292;49.600;8.746;2024-03-25T07:50:16;15.70;49.80
28548;DHT22;68292;49.600;8.746;2024-03-25T07:52:44;15.80;49.70
28548;DHT22;68292;49.600;8.746;2024-03-25T07:55:11;15.80;49.70
28548;DHT22;68292;49.600;8.746;2024-03-25T07:57:38;15.90;49.80
28548;DHT22;68292;49.600;8.746;2024-03-25T08:00:06;16.00;49.80
28548;DHT22;68292;49.600;8.746;2024-03-25T08:02:39;16.00;49.70
28548;DHT22;68292;49.600;8.746;2024-03-25T08:05:06;16.10;49.80
28548;DHT22;68292;49.600;8.746;2024-03-25T08:07:33;16.20;49.80
28548;DHT22;68292;49.600;8.746;2024-03-25T08:10:01;16.20;49.80
28548;DHT22;68292;49.600;8.746;2024-03-25T08:12:28;16.30;49.70
28548;DHT22;68292;49.600;8.746;2024-03-25T08:14:56;16.40;49.70
28548;DHT22;68292;49.600;8.746;2024-03-25T08:17:23;16.50;49.70
28548;DHT22;68292;49.600;8.746;2024-03-25T08:19:49;16.50;49.60
28548;DHT22;68292;49.600;8.746;2024-03-25T08:22:16;16.60;49.50
28548;DHT22;68292;49.600;8.746;2024-03-25T08:24:43;16.70;49.40
28548;DHT22;68292;49.600;8.746;2024-03-25T08:27:11;16.80;49.40
28548;DHT22;68292;49.600;8.746;2024-03-25T08:29:38;16.90;49.20
28548;DHT22;68292;49.600;8.746;2024-03-25T08:32:05;17.00;49.20
28548;DHT22;68292;49.600;8.746;2024-03-25T08:34:32;17.10;49.20
28548;DHT22;68292;49.600;8.746;2024-03-25T08:36:59;17.10;49.00
28548;DHT22;68292;49.600;8.746;2024-03-25T08:39:26;17.20;48.90
28548;DHT22;68292;49.600;8.746;2024-03-25T08:41:52;17.30;48.80
28548;DHT22;68292;49.600;8.746;2024-03-25T08:44:20;17.40;48.80
28548;DHT22;68292;49.600;8.746;2024-03-25T08:46:49;17.50;48.60
28548;DHT22;68292;49.600;8.746;2024-03-25T08:49:15;17.60;48.50
28548;DHT22;68292;49.600;8.746;2024-03-25T08:51:42;17.70;48.50
28548;DHT22;68292;49.600;8.746;2024-03-25T08:54:09;17.80;48.40
28548;DHT22;68292;49.600;8.746;2024-03-25T08:56:35;17.90;48.00
28548;DHT22;68292;49.600;8.746;2024-03-25T08:59:02;18.00;47.80
28548;DHT22;68292;49.600;8.746;2024-03-25T09:01:30;18.10;47.70
28548;DHT22;68292;49.600;8.746;2024-03-25T09:03:57;18.20;47.50
28548;DHT22;68292;49.600;8.746;2024-03-25T09:06:23;18.20;47.50
28548;DHT22;68292;49.600;8.746;2024-03-25T09:08:50;18.30;47.40
28548;DHT22;68292;49.600;8.746;2024-03-25T09:11:35;18.30;47.30
28548;DHT22;68292;49.600;8.746;2024-03-25T09:14:02;18.40;47.30
28548;DHT22;68292;49.600;8.746;2024-03-25T09:16:30;18.50;47.10
28548;DHT22;68292;49.600;8.746;2024-03-25T09:18:57;18.60;46.90
28548;DHT22;68292;49.600;8.746;2024-03-25T09:21:24;18.70;46.90
28548;DHT22;68292;49.600;8.746;2024-03-25T09:23:51;18.90;46.70
28548;DHT22;68292;49.600;8.746;2024-03-25T09:26:17;19.00;46.30
28548;DHT22;68292;49.600;8.746;2024-03-25T09:28:44;19.00;45.80
28548;DHT22;68292;49.600;8.746;2024-03-25T09:31:11;19.10;45.60
28548;DHT22;68292;49.600;8.746;2024-03-25T09:33:39;19.10;46.10
28548;DHT22;68292;49.600;8.746;2024-03-25T09:36:06;19.20;45.30
28548;DHT22;68292;49.600;8.746;2024-03-25T09:38:32;19.30;45.40
28548;DHT22;68292;49.600;8.746;2024-03-25T09:40:59;19.30;45.30
28548;DHT22;68292;49.600;8.746;2024-03-25T09:43:31;19.40;45.30
28548;DHT22;68292;49.600;8.746;2024-03-25T09:46:00;19.50;44.80
28548;DHT22;68292;49.600;8.746;2024-03-25T09:48:28;19.60;45.10
28548;DHT22;68292;49.600;8.746;2024-03-25T09:50:58;19.70;44.80
28548;DHT22;68292;49.600;8.746;2024-03-25T09:53:24;19.90;44.90
28548;DHT22;68292;49.600;8.746;2024-03-25T09:55:51;20.10;45.20
28548;DHT22;68292;49.600;8.746;2024-03-25T09:58:19;20.20;45.30
28548;DHT22;68292;49.600;8.746;2024-03-25T10:00:46;20.50;45.20
28548;DHT22;68292;49.600;8.746;2024-03-25T10:03:12;20.70;45.40
28548;DHT22;68292;49.600;8.746;2024-03-25T10:05:39;21.00;45.20
28548;DHT22;68292;49.600;8.746;2024-03-25T10:08:07;21.30;45.00
28548;DHT22;68292;49.600;8.746;2024-03-25T10:10:34;21.60;44.60
28548;DHT22;68292;49.600;8.746;2024-03-25T10:13:01;21.80;44.40
28548;DHT22;68292;49.600;8.746;2024-03-25T10:15:28;22.10;44.10
28548;DHT22;68292;49.600;8.746;2024-03-25T10:17:55;22.30;43.80
28548;DHT22;68292;49.600;8.746;2024-03-25T10:20:22;22.60;43.30
28548;DHT22;68292;49.600;8.746;2024-03-25T10:22:49;22.90;43.10
28548;DHT22;68292;49.600;8.746;2024-03-25T10:25:21;23.10;42.50
28548;DHT22;68292;49.600;8.746;2024-03-25T10:27:56;23.20;41.30
28548;DHT22;68292;49.600;8.746;2024-03-25T10:30:23;23.50;41.10
28548;DHT22;68292;49.600;8.746;2024-03-25T10:32:59;23.60;41.40
28548;DHT22;68292;49.600;8.746;2024-03-25T10:35:27;23.60;39.90
28548;DHT22;68292;49.600;8.746;2024-03-25T10:37:58;23.70;40.60
28548;DHT22;68292;49.600;8.746;2024-03-25T10:40:28;23.70;39.90
28548;DHT22;68292;49.600;8.746;2024-03-25T10:43:02;23.70;39.70
28548;DHT22;68292;49.600;8.746;2024-03-25T10:45:33;23.70;39.20
28548;DHT22;68292;49.600;8.746;2024-03-25T10:48:06;23.60;39.70
28548;DHT22;68292;49.600;8.746;2024-03-25T10:50:37;23.60;39.50
28548;DHT22;68292;49.600;8.746;2024-03-25T10:53:08;23.50;39.70
28548;DHT22;68292;49.600;8.746;2024-03-25T10:55:40;23.50;39.50
28548;DHT22;68292;49.600;8.746;2024-03-25T10:58:07;23.40;39.30
28548;DHT22;68292;49.600;8.746;2024-03-25T11:00:35;23.30;40.10
28548;DHT22;68292;49.600;8.746;2024-03-25T11:03:03;23.20;39.00
28548;DHT22;68292;49.600;8.746;2024-03-25T11:05:31;23.10;38.90
28548;DHT22;68292;49.600;8.746;2024-03-25T11:07:57;23.00;38.80
28548;DHT22;68292;49.600;8.746;2024-03-25T11:10:29;22.80;38.80
28548;DHT22;68292;49.600;8.746;2024-03-25T11:12:57;22.70;38.30
28548;DHT22;68292;49.600;8.746;2024-03-25T11:15:24;22.50;38.60
28548;DHT22;68292;49.600;8.746;2024-03-25T11:17:51;22.30;38.90
28548;DHT22;68292;49.600;8.746;2024-03-25T11:20:18;22.20;38.90
28548;DHT22;68292;49.600;8.746;2024-03-25T11:22:48;22.10;38.70
28548;DHT22;68292;49.600;8.746;2024-03-25T11:25:15;22.00;38.70
28548;DHT22;68292;49.600;8.746;2024-03-25T11:27:43;21.90;39.30
28548;DHT22;68292;49.600;8.746;2024-03-25T11:30:12;21.80;39.30
28548;DHT22;68292;49.600;8.746;2024-03-25T11:32:44;21.70;39.30
28548;DHT22;68292;49.600;8.746;2024-03-25T11:35:11;21.70;39.20
28548;DHT22;68292;49.600;8.746;2024-03-25T11:37:41;21.80;39.70
28548;DHT22;68292;49.600;8.746;2024-03-25T11:40:08;21.80;39.70
28548;DHT22;68292;49.600;8.746;2024-03-25T11:42:37;21.90;39.70
28548;DHT22;68292;49.600;8.746;2024-03-25T11:45:05;22.00;39.70
28548;DHT22;68292;49.600;8.746;2024-03-25T11:47:33;22.20;39.60
28548;DHT22;68292;49.600;8.746;2024-03-25T11:50:07;22.20;39.20
28548;DHT22;68292;49.600;8.746;2024-03-25T11:52:35;22.30;38.60
28548;DHT22;68292;49.600;8.746;2024-03-25T11:55:02;22.30;38.80
28548;DHT22;68292;49.600;8.746;2024-03-25T11:57:29;22.30;38.40
28548;DHT22;68292;49.600;8.746;2024-03-25T11:59:57;22.20;38.30
28548;DHT22;68292;49.600;8.746;2024-03-25T12:02:25;22.10;38.10
28548;DHT22;68292;49.600;8.746;2024-03-25T12:04:53;22.00;37.90
28548;DHT22;68292;49.600;8.746;2024-03-25T12:07:20;21.90;37.60
28548;DHT22;68292;49.600;8.746;2024-03-25T12:09:47;21.80;37.80
28548;DHT22;68292;49.600;8.746;2024-03-25T12:12:32;21.60;37.90
28548;DHT22;68292;49.600;8.746;2024-03-25T12:14:59;21.50;38.00
28548;DHT22;68292;49.600;8.746;2024-03-25T12:17:27;21.40;38.10
28548;DHT22;68292;49.600;8.746;2024-03-25T12:20:02;21.20;38.20
28548;DHT22;68292;49.600;8.746;2024-03-25T12:22:30;21.10;37.50
28548;DHT22;68292;49.600;8.746;2024-03-25T12:24:58;21.00;37.90
28548;DHT22;68292;49.600;8.746;2024-03-25T12:27:25;20.90;37.90
28548;DHT22;68292;49.600;8.746;2024-03-25T12:29:58;20.80;38.10
28548;DHT22;68292;49.600;8.746;2024-03-25T12:32:35;20.60;37.80
28548;DHT22;68292;49.600;8.746;2024-03-25T12:35:07;20.50;37.70
28548;DHT22;68292;49.600;8.746;2024-03-25T12:37:35;20.40;37.80
28548;DHT22;68292;49.600;8.746;2024-03-25T12:40:04;20.30;38.20
28548;DHT22;68292;49.600;8.746;2024-03-25T12:42:32;20.20;38.10
28548;DHT22;68292;49.600;8.746;2024-03-25T12:44:59;20.10;38.40
28548;DHT22;68292;49.600;8.746;2024-03-25T12:47:26;20.00;38.40
28548;DHT22;68292;49.600;8.746;2024-03-25T12:49:53;20.00;38.40
28548;DHT22;68292;49.600;8.746;2024-03-25T12:52:21;19.90;38.60
28548;DHT22;68292;49.600;8.746;2024-03-25T12:54:48;19.80;38.40
28548;DHT22;68292;49.600;8.746;2024-03-25T12:57:14;19.70;38.60
28548;DHT22;68292;49.600;8.746;2024-03-25T12:59:41;19.70;38.60
28548;DHT22;68292;49.600;8.746;2024-03-25T13:02:10;19.60;38.40
28548;DHT22;68292;49.600;8.746;2024-03-25T13:04:38;19.60;38.20
28548;DHT22;68292;49.600;8.746;2024-03-25T13:07:05;19.50;38.30
28548;DHT22;68292;49.600;8.746;2024-03-25T13:09:33;19.50;38.40
28548;DHT22;68292;49.600;8.746;2024-03-25T13:12:00;19.40;38.10
28548;DHT22;68292;49.600;8.746;2024-03-25T13:14:27;19.40;38.30
28548;DHT22;68292;49.600;8.746;2024-03-25T13:16:53;19.30;38.10
28548;DHT22;68292;49.600;8.746;2024-03-25T13:19:20;19.30;38.00
28548;DHT22;68292;49.600;8.746;2024-03-25T13:21:47;19.20;37.90
28548;DHT22;68292;49.600;8.746;2024-03-25T13:24:14;19.20;38.10
28548;DHT22;68292;49.600;8.746;2024-03-25T13:26:42;19.20;38.30
28548;DHT22;68292;49.600;8.746;2024-03-25T13:29:08;19.10;38.30
28548;DHT22;68292;49.600;8.746;2024-03-25T13:31:35;19.10;38.10
28548;DHT22;68292;49.600;8.746;2024-03-25T13:34:02;19.10;38.00
28548;DHT22;68292;49.600;8.746;2024-03-25T13:36:28;19.10;38.10
28548;DHT22;68292;49.600;8.746;2024-03-25T13:38:55;19.10;38.20
28548;DHT22;68292;49.600;8.746;2024-03-25T13:41:22;19.00;38.80
28548;DHT22;68292;49.600;8.746;2024-03-25T13:43:50;19.00;38.50
28548;DHT22;68292;49.600;8.746;2024-03-25T13:46:16;19.00;38.20
28548;DHT22;68292;49.600;8.746;2024-03-25T13:48:43;19.00;38.40
28548;DHT22;68292;49.600;8.746;2024-03-25T13:51:10;19.00;38.60
28548;DHT22;68292;49.600;8.746;2024-03-25T13:53:36;19.00;38.40
28548;DHT22;68292;49.600;8.746;2024-03-25T13:56:03;19.00;38.20
28548;DHT22;68292;49.600;8.746;2024-03-25T13:58:31;19.00;38.50
28548;DHT22;68292;49.600;8.746;2024-03-25T14:00:59;19.00;38.40
28548;DHT22;68292;49.600;8.746;2024-03-25T14:03:26;19.00;38.30
28548;DHT22;68292;49.600;8.746;2024-03-25T14:05:53;19.00;38.10
28548;DHT22;68292;49.600;8.746;2024-03-25T14:08:20;19.00;38.10
28548;DHT22;68292;49.600;8.746;2024-03-25T14:10:57;19.00;38.20
28548;DHT22;68292;49.600;8.746;2024-03-25T14:13:24;19.00;37.70
28548;DHT22;68292;49.600;8.746;2024-03-25T14:15:51;18.90;38.80
28548;DHT22;68292;49.600;8.746;2024-03-25T14:18:19;18.90;37.90
28548;DHT22;68292;49.600;8.746;2024-03-25T14:20:46;18.90;38.30
28548;DHT22;68292;49.600;8.746;2024-03-25T14:23:13;18.90;37.80
28548;DHT22;68292;49.600;8.746;2024-03-25T14:25:40;18.90;38.00
28548;DHT22;68292;49.600;8.746;2024-03-25T14:28:07;18.90;38.00
28548;DHT22;68292;49.600;8.746;2024-03-25T14:30:33;18.90;38.20
28548;DHT22;68292;49.600;8.746;2024-03-25T14:33:00;18.80;38.20
28548;DHT22;68292;49.600;8.746;2024-03-25T14:35:28;18.80;38.20
28548;DHT22;68292;49.600;8.746;2024-03-25T14:37:55;18.80;38.30
28548;DHT22;68292;49.600;8.746;2024-03-25T14:40:21;18.80;38.00
28548;DHT22;68292;49.600;8.746;2024-03-25T14:42:48;18.80;37.90
28548;DHT22;68292;49.600;8.746;2024-03-25T14:45:15;18.80;38.10
28548;DHT22;68292;49.600;8.746;2024-03-25T14:47:41;18.80;38.20
28548;DHT22;68292;49.600;8.746;2024-03-25T14:50:09;18.80;38.30
28548;DHT22;68292;49.600;8.746;2024-03-25T14:52:37;18.70;38.10
28548;DHT22;68292;49.600;8.746;2024-03-25T14:55:04;18.70;37.90
28548;DHT22;68292;49.600;8.746;2024-03-25T14:57:31;18.70;38.00
28548;DHT22;68292;49.600;8.746;2024-03-25T14:59:57;18.70;37.90
28548;DHT22;68292;49.600;8.746;2024-03-25T15:02:24;18.70;37.70
28548;DHT22;68292;49.600;8.746;2024-03-25T15:04:51;18.70;37.70
28548;DHT22;68292;49.600;8.746;2024-03-25T15:07:17;18.70;37.70
28548;DHT22;68292;49.600;8.746;2024-03-25T15:09:45;18.70;37.60
28548;DHT22;68292;49.600;8.746;2024-03-25T15:12:12;18.70;37.50
28548;DHT22;68292;49.600;8.746;2024-03-25T15:14:39;18.60;37.60
28548;DHT22;68292;49.600;8.746;2024-03-25T15:17:06;18.60;37.60
28548;DHT22;68292;49.600;8.746;2024-03-25T15:19:33;18.60;37.60
28548;DHT22;68292;49.600;8.746;2024-03-25T15:22:00;18.60;37.60
28548;DHT22;68292;49.600;8.746;2024-03-25T15:24:26;18.60;37.40
28548;DHT22;68292;49.600;8.746;2024-03-25T15:26:54;18.60;37.50
28548;DHT22;68292;49.600;8.746;2024-03-25T15:29:21;18.60;37.40
28548;DHT22;68292;49.600;8.746;2024-03-25T15:31:48;18.60;37.70